sensor_id;sensor_type;location;lat;lon;timestamp;pressure;altitude;pressure_sealevel;temperature;humidity
47710;BME280;33473;51.640;5.892;2023-11-22T00:04:05;102600;;;10.6;53.0
47710;BME280;33473;51.640;5.892;2023-11-22T00:17:26;102500;;;10.6;52.0
47710;BME280;33473;51.640;5.892;2023-11-22T00:30:46;102500;;;10.2;54.0
47710;BME280;33473;51.640;5.892;2023-11-22T00:44:06;102600;;;10.4;53.0
47710;BME280;33473;51.640;5.892;2023-11-22T00:57:26;102600;;;10.4;53.0
47710;BME280;33473;51.640;5.892;2023-11-22T01:10:47;102600;;;10.5;52.0
47710;BME280;33473;51.640;5.892;2023-11-22T01:24:08;102600;;;10.4;51.0
47710;BME280;33473;51.640;5.892;2023-11-22T01:37:28;102600;;;10.4;52.0
47710;BME280;33473;51.640;5.892;2023-11-22T01:50:47;102700;;;10.3;52.0
47710;BME280;33473;51.640;5.892;2023-11-22T02:04:07;102700;;;10.3;52.0
47710;BME280;33473;51.640;5.892;2023-11-22T02:17:28;102700;;;10.3;51.0
47710;BME280;33473;51.640;5.892;2023-11-22T02:30:50;102700;;;10.2;51.0
47710;BME280;33473;51.640;5.892;2023-11-22T02:44:11;102700;;;10.0;51.0
47710;BME280;33473;51.640;5.892;2023-11-22T02:57:31;102700;;;9.9;51.0
47710;BME280;33473;51.640;5.892;2023-11-22T03:10:52;102700;;;9.8;51.0
47710;BME280;33473;51.640;5.892;2023-11-22T03:24:13;102700;;;9.8;51.0
47710;BME280;33473;51.640;5.892;2023-11-22T03:37:33;102700;;;9.7;51.0
47710;BME280;33473;51.640;5.892;2023-11-22T03:50:54;102700;;;9.6;51.0
47710;BME280;33473;51.640;5.892;2023-11-22T04:04:14;102800;;;9.4;51.0
47710;BME280;33473;51.640;5.892;2023-11-22T04:17:35;102800;;;9.2;51.0
47710;BME280;33473;51.640;5.892;2023-11-22T04:30:56;102800;;;9.1;50.0
47710;BME280;33473;51.640;5.892;2023-11-22T04:44:16;102800;;;8.9;50.0
47710;BME280;33473;51.640;5.892;2023-11-22T04:57:37;102800;;;8.7;50.0
47710;BME280;33473;51.640;5.892;2023-11-22T05:10:58;102800;;;8.7;51.0
47710;BME280;33473;51.640;5.892;2023-11-22T05:24:19;102800;;;8.9;51.0
47710;BME280;33473;51.640;5.892;2023-11-22T05:37:41;102800;;;9.2;52.0
47710;BME280;33473;51.640;5.892;2023-11-22T05:51:02;102800;;;9.4;52.0
47710;BME280;33473;51.640;5.892;2023-11-22T06:04:22;102800;;;9.5;52.0
47710;BME280;33473;51.640;5.892;2023-11-22T06:17:41;102800;;;9.6;52.0
47710;BME280;33473;51.640;5.892;2023-11-22T06:31:03;102800;;;9.7;52.0
47710;BME280;33473;51.640;5.892;2023-11-22T06:44:24;102800;;;9.7;52.0
47710;BME280;33473;51.640;5.892;2023-11-22T06:57:44;102900;;;9.8;52.0
47710;BME280;33473;51.640;5.892;2023-11-22T07:11:03;102900;;;9.9;52.0
47710;BME280;33473;51.640;5.892;2023-11-22T07:24:25;102900;;;10.0;52.0
47710;BME280;33473;51.640;5.892;2023-11-22T07:37:46;102800;;;10.0;52.0
47710;BME280;33473;51.640;5.892;2023-11-22T07:51:06;102900;;;10.4;52.0
47710;BME280;33473;51.640;5.892;2023-11-22T08:04:25;102900;;;10.5;53.0
47710;BME280;33473;51.640;5.892;2023-11-22T08:17:47;102900;;;10.6;52.0
47710;BME280;33473;51.640;5.892;2023-11-22T08:31:08;102900;;;10.8;52.0
47710;BME280;33473;51.640;5.892;2023-11-22T08:44:27;102900;;;10.9;52.0
47710;BME280;33473;51.640;5.892;2023-11-22T08:57:49;102900;;;11.0;52.0
47710;BME280;33473;51.640;5.892;2023-11-22T09:11:10;102900;;;11.2;52.0
47710;BME280;33473;51.640;5.892;2023-11-22T09:24:30;102900;;;11.4;52.0
47710;BME280;33473;51.640;5.892;2023-11-22T09:37:51;102900;;;11.6;52.0
47710;BME280;33473;51.640;5.892;2023-11-22T09:51:12;102900;;;11.9;52.0
47710;BME280;33473;51.640;5.892;2023-11-22T10:04:32;102900;;;12.5;51.0
47710;BME280;33473;51.640;5.892;2023-11-22T10:17:53;102900;;;12.6;50.0
47710;BME280;33473;51.640;5.892;2023-11-22T10:31:13;102900;;;12.7;50.0
47710;BME280;33473;51.640;5.892;2023-11-22T10:44:32;102900;;;12.9;49.0
47710;BME280;33473;51.640;5.892;2023-11-22T10:57:54;102900;;;13.0;48.0
47710;BME280;33473;51.640;5.892;2023-11-22T11:11:15;102900;;;13.2;49.0
47710;BME280;33473;51.640;5.892;2023-11-22T11:24:36;102900;;;13.4;48.0
47710;BME280;33473;51.640;5.892;2023-11-22T11:37:56;102900;;;13.5;48.0
47710;BME280;33473;51.640;5.892;2023-11-22T11:51:17;102800;;;13.8;48.0
47710;BME280;33473;51.640;5.892;2023-11-22T12:04:37;102800;;;13.8;47.0
47710;BME280;33473;51.640;5.892;2023-11-22T12:17:58;102800;;;13.8;47.0
47710;BME280;33473;51.640;5.892;2023-11-22T12:31:19;102800;;;13.9;47.0
47710;BME280;33473;51.640;5.892;2023-11-22T12:44:40;102800;;;14.1;46.0
47710;BME280;33473;51.640;5.892;2023-11-22T12:58:00;102800;;;14.1;45.0
47710;BME280;33473;51.640;5.892;2023-11-22T13:11:21;102700;;;14.0;44.0
47710;BME280;33473;51.640;5.892;2023-11-22T13:24:41;102700;;;14.1;45.0
47710;BME280;33473;51.640;5.892;2023-11-22T13:38:01;102700;;;14.4;44.0
47710;BME280;33473;51.640;5.892;2023-11-22T13:51:20;102700;;;14.4;43.0
47710;BME280;33473;51.640;5.892;2023-11-22T14:04:41;102700;;;14.3;44.0
47710;BME280;33473;51.640;5.892;2023-11-22T14:18:03;102700;;;14.2;45.0
47710;BME280;33473;51.640;5.892;2023-11-22T14:31:24;102700;;;14.1;45.0
47710;BME280;33473;51.640;5.892;2023-11-22T14:44:44;102700;;;13.9;45.0
47710;BME280;33473;51.640;5.892;2023-11-22T14:58:05;102700;;;13.9;45.0
47710;BME280;33473;51.640;5.892;2023-11-22T15:11:26;102700;;;13.7;46.0
47710;BME280;33473;51.640;5.892;2023-11-22T15:24:46;102700;;;13.6;46.0
47710;BME280;33473;51.640;5.892;2023-11-22T15:38:07;102700;;;13.4;47.0
47710;BME280;33473;51.640;5.892;2023-11-22T15:51:28;102700;;;13.2;47.0
47710;BME280;33473;51.640;5.892;2023-11-22T16:04:48;102700;;;13.1;47.0
47710;BME280;33473;51.640;5.892;2023-11-22T16:18:09;102700;;;13.0;47.0
47710;BME280;33473;51.640;5.892;2023-11-22T16:31:29;102700;;;12.9;48.0
47710;BME280;33473;51.640;5.892;2023-11-22T16:44:50;102600;;;12.8;48.0
47710;BME280;33473;51.640;5.892;2023-11-22T16:58:09;102600;;;12.7;48.0
47710;BME280;33473;51.640;5.892;2023-11-22T17:11:31;102600;;;12.7;48.0
47710;BME280;33473;51.640;5.892;2023-11-22T17:24:52;102600;;;12.7;48.0
47710;BME280;33473;51.640;5.892;2023-11-22T17:38:13;102600;;;12.7;49.0
47710;BME280;33473;51.640;5.892;2023-11-22T17:51:34;102600;;;12.7;48.0
47710;BME280;33473;51.640;5.892;2023-11-22T18:04:54;102600;;;12.8;48.0
47710;BME280;33473;51.640;5.892;2023-11-22T18:18:15;102500;;;12.8;48.0
47710;BME280;33473;51.640;5.892;2023-11-22T18:31:35;102600;;;12.8;48.0
47710;BME280;33473;51.640;5.892;2023-11-22T18:44:55;102500;;;12.7;48.0
47710;BME280;33473;51.640;5.892;2023-11-22T18:58:16;102500;;;12.8;48.0
47710;BME280;33473;51.640;5.892;2023-11-22T19:11:37;102500;;;12.8;48.0
47710;BME280;33473;51.640;5.892;2023-11-22T19:24:57;102500;;;12.7;48.0
47710;BME280;33473;51.640;5.892;2023-11-22T19:38:18;102500;;;12.5;48.0
47710;BME280;33473;51.640;5.892;2023-11-22T19:51:38;102500;;;12.4;48.0
47710;BME280;33473;51.640;5.892;2023-11-22T20:04:57;102500;;;12.6;48.0
47710;BME280;33473;51.640;5.892;2023-11-22T20:18:19;102400;;;12.8;48.0
47710;BME280;33473;51.640;5.892;2023-11-22T20:31:40;102400;;;13.0;48.0
47710;BME280;33473;51.640;5.892;2023-11-22T20:45:01;102500;;;13.2;48.0
47710;BME280;33473;51.640;5.892;2023-11-22T20:58:22;102400;;;13.4;48.0
47710;BME280;33473;51.640;5.892;2023-11-22T21:11:42;102500;;;13.6;48.0
47710;BME280;33473;51.640;5.892;2023-11-22T21:25:03;102400;;;13.7;48.0
47710;BME280;33473;51.640;5.892;2023-11-22T21:38:23;102400;;;13.8;48.0
47710;BME280;33473;51.640;5.892;2023-11-22T21:51:44;102400;;;13.8;48.0
47710;BME280;33473;51.640;5.892;2023-11-22T22:05:04;102400;;;13.9;48.0
47710;BME280;33473;51.640;5.892;2023-11-22T22:18:23;102400;;;14.0;48.0
47710;BME280;33473;51.640;5.892;2023-11-22T22:31:44;102300;;;14.1;48.0
47710;BME280;33473;51.640;5.892;2023-11-22T22:45:06;102300;;;14.2;48.0
47710;BME280;33473;51.640;5.892;2023-11-22T22:58:27;102300;;;14.2;48.0
47710;BME280;33473;51.640;5.892;2023-11-22T23:11:48;102300;;;14.3;49.0
47710;BME280;33473;51.640;5.892;2023-11-22T23:25:08;102300;;;14.2;49.0
47710;BME280;33473;51.640;5.892;2023-11-22T23:38:27;102300;;;14.3;50.0
47710;BME280;33473;51.640;5.892;2023-11-22T23:51:47;102300;;;14.3;50.0
